createdAt,value
2023-03-06T00:00:31.424Z,88
2023-03-06T00:01:31.418Z,88
2023-03-06T00:02:31.390Z,88
2023-03-06T00:03:31.537Z,88
2023-03-06T00:04:31.388Z,88
2023-03-06T00:05:31.437Z,88
2023-03-06T00:06:31.396Z,88
2023-03-06T00:07:31.413Z,88
2023-03-06T00:08:32.490Z,88
2023-03-06T00:09:32.375Z,88
2023-03-06T00:10:32.400Z,88
2023-03-06T00:11:32.441Z,88
2023-03-06T00:12:33.132Z,88
2023-03-06T00:13:32.389Z,88
2023-03-06T00:14:32.380Z,88
2023-03-06T00:15:32.425Z,88
2023-03-06T00:16:32.544Z,89
2023-03-06T00:17:32.365Z,89
2023-03-06T00:18:32.373Z,89
2023-03-06T00:19:32.441Z,89
2023-03-06T00:20:32.424Z,89
2023-03-06T00:21:32.396Z,89
2023-03-06T00:22:32.399Z,89
2023-03-06T00:23:32.443Z,89
2023-03-06T00:24:32.380Z,89
2023-03-06T00:25:32.368Z,89
2023-03-06T00:26:32.413Z,89
2023-03-06T00:27:32.378Z,89
2023-03-06T00:28:32.439Z,89
2023-03-06T00:29:32.401Z,89
2023-03-06T00:30:32.408Z,89
2023-03-06T00:31:32.443Z,89
2023-03-06T00:32:32.448Z,89
2023-03-06T00:33:32.403Z,89
2023-03-06T00:34:32.388Z,89
2023-03-06T00:35:32.408Z,89
2023-03-06T00:36:32.404Z,89
2023-03-06T00:37:32.380Z,89
2023-03-06T00:38:32.417Z,89
2023-03-06T00:39:32.377Z,89
2023-03-06T00:40:32.454Z,89
2023-03-06T00:41:32.396Z,89
2023-03-06T00:42:32.404Z,89
2023-03-06T00:43:32.381Z,89
2023-03-06T00:44:32.399Z,89
2023-03-06T00:45:32.420Z,89
2023-03-06T00:46:32.388Z,89
2023-03-06T00:47:32.380Z,89
2023-03-06T00:48:32.423Z,89
2023-03-06T00:49:32.382Z,89
2023-03-06T00:50:32.419Z,89
2023-03-06T00:51:32.388Z,89
2023-03-06T00:52:32.500Z,89
2023-03-06T00:53:32.393Z,89
2023-03-06T00:54:32.401Z,89
2023-03-06T00:55:32.385Z,89
2023-03-06T00:56:32.406Z,89
2023-03-06T00:57:32.378Z,89
2023-03-06T00:58:32.429Z,89
2023-03-06T00:59:32.401Z,89
2023-03-06T01:00:32.423Z,89
2023-03-06T01:01:32.395Z,89
2023-03-06T01:02:32.653Z,89
2023-03-06T01:03:32.342Z,89
2023-03-06T01:04:32.406Z,89
2023-03-06T01:05:32.366Z,89
2023-03-06T01:06:32.420Z,89
2023-03-06T01:07:32.392Z,89
2023-03-06T01:08:32.447Z,88
2023-03-06T01:09:32.386Z,89
2023-03-06T01:10:32.433Z,88
2023-03-06T01:11:32.414Z,89
2023-03-06T01:12:32.470Z,89
2023-03-06T01:13:32.373Z,89
2023-03-06T01:14:32.416Z,89
2023-03-06T01:15:32.414Z,89
2023-03-06T01:16:32.545Z,89
2023-03-06T01:17:32.390Z,89
2023-03-06T01:18:32.410Z,89
2023-03-06T01:19:32.364Z,89
2023-03-06T01:20:32.412Z,89
2023-03-06T01:21:32.361Z,89
2023-03-06T01:22:32.401Z,89
2023-03-06T01:23:32.371Z,89
2023-03-06T01:24:32.340Z,89
2023-03-06T01:25:32.396Z,89
2023-03-06T01:26:32.365Z,89
2023-03-06T01:27:32.422Z,89
2023-03-06T01:28:32.345Z,89
2023-03-06T01:29:32.381Z,89
2023-03-06T01:30:32.382Z,89
2023-03-06T01:31:32.487Z,89
2023-03-06T01:32:32.384Z,89
2023-03-06T01:33:32.451Z,89
2023-03-06T01:34:32.381Z,90
2023-03-06T01:35:32.453Z,90
2023-03-06T01:36:32.395Z,90
2023-03-06T01:37:32.417Z,90
2023-03-06T01:38:32.376Z,90
2023-03-06T01:39:32.433Z,90
2023-03-06T01:40:32.507Z,90
2023-03-06T01:41:32.680Z,90
2023-03-06T01:42:32.506Z,90
2023-03-06T01:43:32.520Z,90
2023-03-06T01:44:32.458Z,91
2023-03-06T01:45:32.642Z,91
2023-03-06T01:46:32.570Z,90
2023-03-06T01:47:32.568Z,91
2023-03-06T01:48:32.527Z,91
2023-03-06T01:49:32.563Z,91
2023-03-06T01:50:32.536Z,91
2023-03-06T01:51:32.545Z,91
2023-03-06T01:52:32.544Z,91
2023-03-06T01:53:32.464Z,91
2023-03-06T01:54:32.468Z,91
2023-03-06T01:55:32.512Z,91
2023-03-06T01:56:32.518Z,91
2023-03-06T01:57:32.615Z,91
2023-03-06T01:58:32.370Z,90
2023-03-06T01:59:32.395Z,90
2023-03-06T02:00:32.412Z,90
2023-03-06T02:01:32.391Z,90
2023-03-06T02:02:32.387Z,90
2023-03-06T02:03:32.411Z,90
2023-03-06T02:04:32.375Z,90
2023-03-06T02:05:32.395Z,90
2023-03-06T02:06:32.407Z,90
2023-03-06T02:07:32.392Z,90
2023-03-06T02:08:32.366Z,90
2023-03-06T02:09:32.409Z,90
2023-03-06T02:10:32.380Z,90
2023-03-06T02:11:32.457Z,90
2023-03-06T02:12:32.385Z,90
2023-03-06T02:13:32.410Z,90
2023-03-06T02:14:32.391Z,90
2023-03-06T02:15:32.435Z,90
2023-03-06T02:16:32.479Z,89
2023-03-06T02:17:32.389Z,90
2023-03-06T02:18:32.379Z,90
2023-03-06T02:19:32.399Z,90
2023-03-06T02:20:32.370Z,90
2023-03-06T02:21:32.439Z,90
2023-03-06T02:22:32.386Z,89
2023-03-06T02:23:32.418Z,90
2023-03-06T02:24:32.401Z,90
2023-03-06T02:25:32.427Z,90
2023-03-06T02:26:32.376Z,90
2023-03-06T02:27:32.403Z,90
2023-03-06T02:28:32.390Z,90
2023-03-06T02:29:32.407Z,90
2023-03-06T02:30:32.370Z,90
2023-03-06T02:31:32.424Z,90
2023-03-06T02:32:32.434Z,90
2023-03-06T02:33:32.433Z,90
2023-03-06T02:34:32.399Z,90
2023-03-06T02:35:32.488Z,90
2023-03-06T02:36:32.378Z,90
2023-03-06T02:37:32.427Z,90
2023-03-06T02:38:32.369Z,90
2023-03-06T02:39:32.447Z,90
2023-03-06T02:40:32.384Z,90
2023-03-06T02:41:32.422Z,90
2023-03-06T02:42:32.401Z,89
2023-03-06T02:43:32.390Z,89
2023-03-06T02:44:32.418Z,89
2023-03-06T02:45:32.409Z,89
2023-03-06T02:46:32.523Z,89
2023-03-06T02:47:32.393Z,89
2023-03-06T02:48:32.388Z,89
2023-03-06T02:49:32.410Z,89
2023-03-06T02:50:32.399Z,89
2023-03-06T02:51:32.405Z,89
2023-03-06T02:52:32.407Z,89
2023-03-06T02:53:32.423Z,89
2023-03-06T02:54:32.369Z,89
2023-03-06T02:55:32.467Z,89
2023-03-06T02:56:32.370Z,89
2023-03-06T02:57:32.421Z,90
2023-03-06T02:58:32.400Z,89
2023-03-06T02:59:32.381Z,89
2023-03-06T03:00:32.381Z,90
2023-03-06T03:01:32.447Z,90
2023-03-06T03:02:32.431Z,89
2023-03-06T03:03:32.379Z,90
2023-03-06T03:04:32.381Z,90
2023-03-06T03:05:32.406Z,90
2023-03-06T03:06:32.418Z,90
2023-03-06T03:07:32.400Z,90
2023-03-06T03:08:32.371Z,90
2023-03-06T03:09:32.414Z,90
2023-03-06T03:10:32.472Z,90
2023-03-06T03:11:32.388Z,90
2023-03-06T03:12:32.513Z,90
2023-03-06T03:13:32.606Z,90
2023-03-06T03:14:32.514Z,90
2023-03-06T03:15:32.597Z,90
2023-03-06T03:16:32.448Z,90
2023-03-06T03:17:32.551Z,90
2023-03-06T03:18:32.370Z,90
2023-03-06T03:19:32.565Z,90
2023-03-06T03:20:32.384Z,90
2023-03-06T03:21:32.412Z,90
2023-03-06T03:22:32.468Z,90
2023-03-06T03:23:32.399Z,90
2023-03-06T03:24:33.005Z,90
2023-03-06T03:25:32.410Z,90
2023-03-06T03:26:32.390Z,90
2023-03-06T03:27:32.496Z,90
2023-03-06T03:28:32.375Z,90
2023-03-06T03:29:32.385Z,90
2023-03-06T03:30:32.532Z,90
2023-03-06T03:31:32.638Z,90
2023-03-06T03:32:32.554Z,90
2023-03-06T03:33:32.506Z,90
2023-03-06T03:34:32.495Z,90
2023-03-06T03:35:32.556Z,90
2023-03-06T03:36:32.485Z,90
2023-03-06T03:37:32.366Z,90
2023-03-06T03:38:32.501Z,90
2023-03-06T03:39:32.377Z,90
2023-03-06T03:40:32.504Z,90
2023-03-06T03:41:32.468Z,90
2023-03-06T03:42:32.511Z,90
2023-03-06T03:43:32.545Z,90
2023-03-06T03:44:32.500Z,90
2023-03-06T03:45:32.418Z,90
2023-03-06T03:46:32.540Z,90
2023-03-06T03:47:32.569Z,90
2023-03-06T03:48:32.397Z,90
2023-03-06T03:49:32.401Z,90
2023-03-06T03:50:32.454Z,90
2023-03-06T03:51:32.373Z,90
2023-03-06T03:52:32.375Z,90
2023-03-06T03:53:32.386Z,90
2023-03-06T03:54:32.454Z,90
2023-03-06T03:55:32.381Z,90
2023-03-06T03:56:32.382Z,90
2023-03-06T03:57:32.375Z,90
2023-03-06T03:58:32.449Z,90
2023-03-06T03:59:32.379Z,90
2023-03-06T04:00:32.398Z,90
2023-03-06T04:01:32.409Z,90
2023-03-06T04:02:32.382Z,90
2023-03-06T04:03:32.372Z,90
2023-03-06T04:04:32.478Z,89
2023-03-06T04:05:32.363Z,89
2023-03-06T04:06:32.386Z,89
2023-03-06T04:07:32.364Z,89
2023-03-06T04:08:32.381Z,89
2023-03-06T04:09:32.348Z,90
2023-03-06T04:10:32.379Z,90
2023-03-06T04:11:32.373Z,90
2023-03-06T04:12:32.373Z,90
2023-03-06T04:13:32.569Z,90
2023-03-06T04:14:32.414Z,90
2023-03-06T04:15:32.346Z,90
2023-03-06T04:16:32.425Z,90
2023-03-06T04:17:32.377Z,90
2023-03-06T04:18:32.417Z,89
2023-03-06T04:19:32.358Z,89
2023-03-06T04:20:32.534Z,89
2023-03-06T04:21:32.400Z,89
2023-03-06T04:22:32.421Z,89
2023-03-06T04:23:32.382Z,90
2023-03-06T04:24:32.388Z,90
2023-03-06T04:25:32.341Z,90
2023-03-06T04:26:32.381Z,90
2023-03-06T04:27:32.381Z,90
2023-03-06T04:28:32.409Z,90
2023-03-06T04:29:32.450Z,90
2023-03-06T04:30:32.365Z,90
2023-03-06T04:31:32.406Z,90
2023-03-06T04:32:32.528Z,89
2023-03-06T04:33:32.362Z,89
2023-03-06T04:34:32.384Z,89
2023-03-06T04:35:32.458Z,89
2023-03-06T04:36:32.440Z,89
2023-03-06T04:37:32.368Z,89
2023-03-06T04:38:32.384Z,89
2023-03-06T04:39:32.361Z,89
2023-03-06T04:40:32.399Z,89
2023-03-06T04:41:32.343Z,89
2023-03-06T04:42:32.384Z,89
2023-03-06T04:43:32.385Z,89
2023-03-06T04:44:32.386Z,89
2023-03-06T04:45:32.421Z,89
2023-03-06T04:46:32.374Z,89
2023-03-06T04:47:32.378Z,89
2023-03-06T04:48:32.374Z,89
2023-03-06T04:49:32.357Z,90
2023-03-06T04:50:32.397Z,90
2023-03-06T04:51:32.347Z,90
2023-03-06T04:52:32.393Z,90
2023-03-06T04:53:32.358Z,90
2023-03-06T04:54:32.389Z,90
2023-03-06T04:55:32.367Z,90
2023-03-06T04:56:32.460Z,90
2023-03-06T04:57:32.374Z,90
2023-03-06T04:58:32.381Z,90
2023-03-06T04:59:32.381Z,90
2023-03-06T05:00:32.383Z,90
2023-03-06T05:01:32.360Z,90
2023-03-06T05:02:32.420Z,90
2023-03-06T05:03:32.350Z,90
2023-03-06T05:04:32.405Z,90
2023-03-06T05:05:32.387Z,90
2023-03-06T05:06:32.375Z,90
2023-03-06T05:07:32.353Z,90
2023-03-06T05:08:32.375Z,90
2023-03-06T05:09:32.381Z,90
2023-03-06T05:10:32.390Z,90
2023-03-06T05:11:32.379Z,90
2023-03-06T05:12:32.380Z,90
2023-03-06T05:13:32.352Z,90
2023-03-06T05:14:32.382Z,89
2023-03-06T05:15:32.355Z,89
2023-03-06T05:16:32.439Z,89
2023-03-06T05:17:32.376Z,89
2023-03-06T05:18:32.365Z,89
2023-03-06T05:19:32.523Z,89
2023-03-06T05:20:32.397Z,89
2023-03-06T05:21:32.373Z,89
2023-03-06T05:22:32.361Z,89
2023-03-06T05:23:32.360Z,89
2023-03-06T05:24:32.361Z,89
2023-03-06T05:25:32.359Z,89
2023-03-06T05:26:32.356Z,89
2023-03-06T05:27:32.368Z,89
2023-03-06T05:28:32.390Z,89
2023-03-06T05:29:32.420Z,89
2023-03-06T05:30:32.363Z,89
2023-03-06T05:31:32.398Z,89
2023-03-06T05:32:35.371Z,89
2023-03-06T05:33:32.370Z,89
2023-03-06T05:34:32.393Z,89
2023-03-06T05:35:32.433Z,89
2023-03-06T05:36:32.378Z,89
2023-03-06T05:37:32.380Z,89
2023-03-06T05:38:32.375Z,89
2023-03-06T05:39:32.370Z,89
2023-03-06T05:40:32.424Z,89
2023-03-06T05:41:32.376Z,89
2023-03-06T05:42:32.352Z,89
2023-03-06T05:43:32.358Z,89
2023-03-06T05:44:32.389Z,89
2023-03-06T05:45:32.370Z,89
2023-03-06T05:46:32.365Z,89
2023-03-06T05:47:32.397Z,89
2023-03-06T05:48:32.395Z,89
2023-03-06T05:49:32.468Z,88
2023-03-06T05:50:32.380Z,88
2023-03-06T05:51:32.408Z,88
2023-03-06T05:52:32.404Z,88
2023-03-06T05:53:32.392Z,88
2023-03-06T05:54:32.363Z,88
2023-03-06T05:55:32.355Z,88
2023-03-06T05:56:32.379Z,88
2023-03-06T05:57:32.398Z,88
2023-03-06T05:58:32.365Z,88
2023-03-06T05:59:32.364Z,88
2023-03-06T06:00:32.372Z,88
2023-03-06T06:01:32.386Z,88
2023-03-06T06:02:32.400Z,88
2023-03-06T06:03:32.374Z,88
2023-03-06T06:04:32.375Z,88
2023-03-06T06:05:32.388Z,88
2023-03-06T06:06:32.363Z,88
2023-03-06T06:07:32.377Z,88
2023-03-06T06:08:32.406Z,88
2023-03-06T06:09:32.377Z,88
2023-03-06T06:10:32.333Z,88
2023-03-06T06:11:32.386Z,88
2023-03-06T06:12:32.365Z,88
2023-03-06T06:13:32.386Z,88
2023-03-06T06:14:32.330Z,88
2023-03-06T06:15:32.411Z,88
2023-03-06T06:16:32.417Z,88
2023-03-06T06:17:32.382Z,88
2023-03-06T06:18:32.374Z,88
2023-03-06T06:19:32.376Z,88
2023-03-06T06:20:32.438Z,87
2023-03-06T06:21:32.368Z,87
2023-03-06T06:22:32.348Z,87
2023-03-06T06:23:32.348Z,88
2023-03-06T06:24:32.351Z,88
2023-03-06T06:25:32.376Z,87
2023-03-06T06:26:32.397Z,87
2023-03-06T06:27:32.343Z,87
2023-03-06T06:28:32.378Z,87
2023-03-06T06:29:32.375Z,87
2023-03-06T06:30:32.357Z,87
2023-03-06T06:31:32.422Z,87
2023-03-06T06:32:32.475Z,87
2023-03-06T06:33:32.338Z,87
2023-03-06T06:34:32.345Z,87
2023-03-06T06:35:32.426Z,87
2023-03-06T06:36:32.405Z,88
2023-03-06T06:37:32.342Z,87
2023-03-06T06:38:32.376Z,87
2023-03-06T06:39:32.359Z,87
2023-03-06T06:40:32.368Z,87
2023-03-06T06:41:51.064Z,87
2023-03-06T06:42:38.945Z,87
2023-03-06T06:43:32.338Z,87
2023-03-06T06:44:32.377Z,87
2023-03-06T06:45:32.346Z,87
2023-03-06T06:47:19.288Z,87
2023-03-06T06:47:32.471Z,87
2023-03-06T06:48:32.393Z,87
2023-03-06T06:49:32.381Z,87
2023-03-06T06:50:32.363Z,88
2023-03-06T06:51:32.380Z,88
2023-03-06T06:52:32.377Z,88
2023-03-06T06:53:32.371Z,88
2023-03-06T06:54:32.376Z,88
2023-03-06T06:55:32.373Z,88
2023-03-06T06:56:32.387Z,88
2023-03-06T06:57:32.364Z,88
2023-03-06T06:58:32.358Z,88
2023-03-06T06:59:32.340Z,88
2023-03-06T07:00:32.370Z,88
2023-03-06T07:01:32.384Z,88
2023-03-06T07:02:32.384Z,88
2023-03-06T07:03:32.480Z,88
2023-03-06T07:04:32.402Z,88
2023-03-06T07:05:32.401Z,88
2023-03-06T07:06:32.378Z,88
2023-03-06T07:07:32.393Z,88
2023-03-06T07:08:32.393Z,88
2023-03-06T07:09:32.348Z,88
2023-03-06T07:10:32.364Z,88
2023-03-06T07:11:32.350Z,88
2023-03-06T07:12:32.388Z,88
2023-03-06T07:13:32.337Z,88
2023-03-06T07:14:32.401Z,87
2023-03-06T07:15:32.357Z,87
2023-03-06T07:16:32.385Z,87
2023-03-06T07:17:32.354Z,87
2023-03-06T07:18:32.396Z,87
2023-03-06T07:19:32.349Z,87
2023-03-06T07:20:32.380Z,87
2023-03-06T07:21:32.367Z,87
2023-03-06T07:22:44.752Z,87
2023-03-06T07:23:32.416Z,87
2023-03-06T07:24:32.383Z,87
2023-03-06T07:25:32.371Z,87
2023-03-06T07:26:34.491Z,87
2023-03-06T07:27:32.471Z,87
2023-03-06T07:28:46.161Z,87
2023-03-06T07:29:32.595Z,87
2023-03-06T07:30:32.369Z,87
2023-03-06T07:31:32.474Z,87
2023-03-06T07:32:32.365Z,87
2023-03-06T07:33:32.386Z,87
2023-03-06T07:34:32.381Z,87
2023-03-06T07:35:32.407Z,87
2023-03-06T07:36:32.358Z,87
2023-03-06T07:37:32.386Z,87
2023-03-06T07:38:32.328Z,87
2023-03-06T07:39:32.386Z,87
2023-03-06T07:40:32.343Z,87
2023-03-06T07:41:32.352Z,87
2023-03-06T07:42:32.336Z,87
2023-03-06T07:43:32.383Z,87
2023-03-06T07:44:32.354Z,87
2023-03-06T07:45:32.379Z,87
2023-03-06T07:46:32.379Z,87
2023-03-06T07:47:32.581Z,86
2023-03-06T07:48:32.346Z,86
2023-03-06T07:49:32.407Z,86
2023-03-06T07:50:32.316Z,86
2023-03-06T07:51:32.351Z,86
2023-03-06T07:52:32.460Z,86
2023-03-06T07:53:32.393Z,86
2023-03-06T07:54:32.352Z,86
2023-03-06T07:55:32.364Z,86
2023-03-06T07:56:32.358Z,86
2023-03-06T07:57:32.395Z,86
2023-03-06T07:58:32.346Z,86
2023-03-06T07:59:32.372Z,86
2023-03-06T08:00:32.346Z,86
2023-03-06T08:01:32.446Z,86
2023-03-06T08:02:32.374Z,86
2023-03-06T08:03:32.479Z,86
2023-03-06T08:04:32.324Z,86
2023-03-06T08:05:32.413Z,86
2023-03-06T08:06:32.366Z,86
2023-03-06T08:07:32.439Z,86
2023-03-06T08:08:32.396Z,86
2023-03-06T08:09:32.571Z,85
2023-03-06T08:10:32.355Z,85
2023-03-06T08:11:32.405Z,85
2023-03-06T08:12:32.357Z,85
2023-03-06T08:13:32.357Z,84
2023-03-06T08:14:32.342Z,84
2023-03-06T08:15:32.344Z,84
2023-03-06T08:16:32.472Z,84
2023-03-06T08:17:32.400Z,84
2023-03-06T08:18:32.352Z,83
2023-03-06T08:19:32.361Z,83
2023-03-06T08:20:32.349Z,83
2023-03-06T08:21:32.378Z,83
2023-03-06T08:22:32.345Z,83
2023-03-06T08:23:32.354Z,84
2023-03-06T08:24:32.417Z,83
2023-03-06T08:25:32.355Z,83
2023-03-06T08:26:32.370Z,84
2023-03-06T08:27:32.337Z,84
2023-03-06T08:28:32.372Z,84
2023-03-06T08:29:32.451Z,84
2023-03-06T08:30:32.394Z,84
2023-03-06T08:31:32.388Z,84
2023-03-06T08:32:32.477Z,84
2023-03-06T08:33:32.364Z,84
2023-03-06T08:34:32.357Z,84
2023-03-06T08:35:32.391Z,84
2023-03-06T08:36:32.390Z,84
2023-03-06T08:37:32.385Z,84
2023-03-06T08:38:32.350Z,84
2023-03-06T08:39:32.356Z,84
2023-03-06T08:40:32.361Z,84
2023-03-06T08:41:32.351Z,83
2023-03-06T08:42:32.365Z,84
2023-03-06T08:43:32.333Z,84
2023-03-06T08:44:32.348Z,84
2023-03-06T08:45:32.454Z,83
2023-03-06T08:46:32.353Z,83
2023-03-06T08:47:32.365Z,83
2023-03-06T08:48:32.353Z,83
2023-03-06T08:49:32.344Z,83
2023-03-06T08:50:32.355Z,83
2023-03-06T08:51:32.396Z,83
2023-03-06T08:52:32.422Z,83
2023-03-06T08:53:42.516Z,83
2023-03-06T08:54:32.385Z,83
2023-03-06T08:55:32.345Z,83
2023-03-06T08:56:32.345Z,83
2023-03-06T08:57:32.355Z,83
2023-03-06T08:58:32.358Z,82
2023-03-06T08:59:32.401Z,82
2023-03-06T09:00:32.457Z,83
2023-03-06T09:01:32.346Z,83
2023-03-06T09:02:32.436Z,83
2023-03-06T09:03:32.315Z,83
2023-03-06T09:04:32.346Z,83
2023-03-06T09:05:32.329Z,83
2023-03-06T09:06:32.369Z,83
2023-03-06T09:07:32.398Z,83
2023-03-06T09:08:32.368Z,82
2023-03-06T09:09:32.350Z,83
2023-03-06T09:10:32.390Z,83
2023-03-06T09:11:32.316Z,82
2023-03-06T09:12:40.420Z,83
2023-03-06T09:13:32.365Z,83
2023-03-06T09:14:32.366Z,83
2023-03-06T09:15:32.396Z,83
2023-03-06T09:16:32.415Z,83
2023-03-06T09:17:32.365Z,83
2023-03-06T09:18:32.412Z,83
2023-03-06T09:19:32.317Z,83
2023-03-06T09:20:32.351Z,83
2023-03-06T09:21:32.348Z,82
2023-03-06T09:22:32.371Z,82
2023-03-06T09:23:32.357Z,82
2023-03-06T09:24:32.362Z,82
2023-03-06T09:25:32.372Z,82
2023-03-06T09:26:45.136Z,81
2023-03-06T09:27:32.356Z,81
2023-03-06T09:28:32.310Z,81
2023-03-06T09:29:32.356Z,81
2023-03-06T09:30:32.327Z,81
2023-03-06T09:31:32.362Z,80
2023-03-06T09:32:32.468Z,80
2023-03-06T09:33:32.403Z,80
2023-03-06T09:34:32.350Z,81
2023-03-06T09:35:32.380Z,81
2023-03-06T09:36:40.131Z,81
2023-03-06T09:37:32.436Z,81
2023-03-06T09:38:32.342Z,81
2023-03-06T09:39:32.379Z,81
2023-03-06T09:40:32.333Z,81
2023-03-06T09:41:32.414Z,81
2023-03-06T09:42:32.333Z,81
2023-03-06T09:43:32.334Z,81
2023-03-06T09:44:32.338Z,81
2023-03-06T09:45:32.336Z,80
2023-03-06T09:46:32.326Z,80
2023-03-06T09:47:32.382Z,80
2023-03-06T09:48:32.337Z,80
2023-03-06T09:49:32.423Z,80
2023-03-06T09:50:32.348Z,80
2023-03-06T09:51:32.389Z,80
2023-03-06T09:52:32.331Z,80
2023-03-06T09:53:32.338Z,80
2023-03-06T09:54:32.348Z,79
2023-03-06T09:55:32.389Z,79
2023-03-06T09:56:32.335Z,79
2023-03-06T09:57:32.431Z,78
2023-03-06T09:58:32.313Z,78
2023-03-06T09:59:32.481Z,78
2023-03-06T10:00:32.343Z,78
2023-03-06T10:01:32.340Z,78
2023-03-06T10:02:32.385Z,78
2023-03-06T10:03:32.480Z,77
2023-03-06T10:04:32.352Z,77
2023-03-06T10:05:32.355Z,77
2023-03-06T10:06:32.410Z,77
2023-03-06T10:07:32.346Z,77
2023-03-06T10:08:32.328Z,76
2023-03-06T10:09:32.364Z,76
2023-03-06T10:10:32.323Z,76
2023-03-06T10:11:32.378Z,76
2023-03-06T10:12:32.342Z,76
2023-03-06T10:13:32.334Z,76
2023-03-06T10:14:32.367Z,77
2023-03-06T10:15:32.421Z,77
2023-03-06T10:16:32.348Z,77
2023-03-06T10:17:32.331Z,77
2023-03-06T10:18:32.312Z,77
2023-03-06T10:19:32.352Z,76
2023-03-06T10:20:32.326Z,77
2023-03-06T10:21:32.366Z,77
2023-03-06T10:22:32.327Z,76
2023-03-06T10:23:32.366Z,77
2023-03-06T10:24:32.298Z,77
2023-03-06T10:25:32.422Z,77
2023-03-06T10:26:32.491Z,77
2023-03-06T10:27:32.376Z,77
2023-03-06T10:28:34.419Z,77
2023-03-06T10:29:32.348Z,77
2023-03-06T10:30:32.313Z,77
2023-03-06T10:31:32.407Z,77
2023-03-06T10:32:46.222Z,76
2023-03-06T10:33:32.411Z,75
2023-03-06T10:34:32.310Z,75
2023-03-06T10:35:32.466Z,76
2023-03-06T10:36:32.349Z,75
2023-03-06T10:37:32.688Z,75
2023-03-06T10:38:32.348Z,75
2023-03-06T10:39:32.422Z,76
2023-03-06T10:40:32.365Z,75
2023-03-06T10:41:32.350Z,75
2023-03-06T10:42:32.367Z,75
2023-03-06T10:43:34.066Z,75
2023-03-06T10:44:32.324Z,75
2023-03-06T10:45:47.230Z,75
2023-03-06T10:46:32.442Z,75
2023-03-06T10:47:32.340Z,75
2023-03-06T10:48:32.307Z,75
2023-03-06T10:49:32.368Z,74
2023-03-06T10:50:32.337Z,74
2023-03-06T10:51:32.365Z,74
2023-03-06T10:52:32.364Z,74
2023-03-06T10:53:32.348Z,73
2023-03-06T10:54:32.343Z,73
2023-03-06T10:55:32.329Z,73
2023-03-06T10:56:32.362Z,74
2023-03-06T10:57:32.386Z,73
2023-03-06T10:58:32.302Z,73
2023-03-06T10:59:32.367Z,73
2023-03-06T11:00:32.318Z,73
2023-03-06T11:01:32.397Z,74
2023-03-06T11:02:32.297Z,74
2023-03-06T11:03:32.378Z,73
2023-03-06T11:04:32.354Z,74
2023-03-06T11:05:32.327Z,74
2023-03-06T11:06:32.336Z,74
2023-03-06T11:07:32.349Z,72
2023-03-06T11:08:32.306Z,73
2023-03-06T11:09:32.335Z,72
2023-03-06T11:10:32.320Z,73
2023-03-06T11:11:37.811Z,73
2023-03-06T11:12:32.405Z,73
2023-03-06T11:13:32.333Z,74
2023-03-06T11:14:32.296Z,74
2023-03-06T11:15:32.341Z,74
2023-03-06T11:16:32.380Z,75
2023-03-06T11:17:32.323Z,75
2023-03-06T11:18:32.310Z,75
2023-03-06T11:19:32.352Z,75
2023-03-06T11:20:48.582Z,75
2023-03-06T11:21:32.372Z,75
2023-03-06T11:22:32.384Z,76
2023-03-06T11:23:32.380Z,76
2023-03-06T11:24:32.291Z,76
2023-03-06T11:25:32.257Z,76
2023-03-06T11:26:32.327Z,77
2023-03-06T11:27:32.282Z,77
2023-03-06T11:28:32.315Z,75
2023-03-06T11:29:34.890Z,75
2023-03-06T11:30:32.341Z,75
2023-03-06T11:31:32.374Z,76
2023-03-06T11:32:32.388Z,77
2023-03-06T11:33:32.322Z,77
2023-03-06T11:34:32.402Z,77
2023-03-06T11:35:32.385Z,77
2023-03-06T11:36:32.347Z,77
2023-03-06T11:37:32.321Z,77
2023-03-06T11:38:32.347Z,77
2023-03-06T11:39:32.300Z,76
2023-03-06T11:40:32.314Z,76
2023-03-06T11:41:32.309Z,76
2023-03-06T11:42:32.357Z,76
2023-03-06T11:43:32.319Z,75
2023-03-06T11:44:32.332Z,76
2023-03-06T11:45:32.380Z,75
2023-03-06T11:46:32.415Z,75
2023-03-06T11:47:32.297Z,75
2023-03-06T11:48:32.329Z,75
2023-03-06T11:49:32.310Z,75
2023-03-06T11:50:32.346Z,75
2023-03-06T11:51:32.324Z,75
2023-03-06T11:52:32.319Z,75
2023-03-06T11:53:32.309Z,75
2023-03-06T11:54:32.341Z,75
2023-03-06T11:55:32.321Z,75
2023-03-06T11:56:32.324Z,75
2023-03-06T11:57:32.279Z,75
2023-03-06T11:58:32.347Z,74
2023-03-06T11:59:32.297Z,75
2023-03-06T12:00:32.307Z,74
2023-03-06T12:01:32.360Z,74
2023-03-06T12:02:32.366Z,73
2023-03-06T12:03:32.309Z,73
2023-03-06T12:04:32.355Z,73
2023-03-06T12:05:32.410Z,74
2023-03-06T12:06:32.344Z,75
2023-03-06T12:07:32.348Z,74
2023-03-06T12:08:32.336Z,75
2023-03-06T12:09:32.320Z,74
2023-03-06T12:10:32.349Z,73
2023-03-06T12:11:33.256Z,73
2023-03-06T12:12:32.341Z,73
2023-03-06T12:13:32.287Z,73
2023-03-06T12:14:32.334Z,73
2023-03-06T12:15:32.340Z,72
2023-03-06T12:16:32.392Z,72
2023-03-06T12:17:32.298Z,73
2023-03-06T12:18:32.323Z,73
2023-03-06T12:19:32.331Z,72
2023-03-06T12:20:32.364Z,73
2023-03-06T12:21:32.304Z,73
2023-03-06T12:22:32.356Z,72
2023-03-06T12:23:32.295Z,73
2023-03-06T12:24:32.330Z,73
2023-03-06T12:25:32.284Z,73
2023-03-06T12:26:32.331Z,73
2023-03-06T12:27:32.342Z,73
2023-03-06T12:28:32.341Z,73
2023-03-06T12:29:32.366Z,74
2023-03-06T12:30:32.314Z,74
2023-03-06T12:31:32.381Z,74
2023-03-06T12:32:32.396Z,73
2023-03-06T12:33:32.373Z,73
2023-03-06T12:34:32.323Z,73
2023-03-06T12:35:32.450Z,74
2023-03-06T12:36:32.290Z,73
2023-03-06T12:37:32.337Z,74
2023-03-06T12:38:32.367Z,74
2023-03-06T12:39:32.354Z,74
2023-03-06T12:40:32.305Z,74
2023-03-06T12:41:32.368Z,74
2023-03-06T12:42:32.329Z,74
2023-03-06T12:43:32.381Z,74
2023-03-06T12:44:32.288Z,73
2023-03-06T12:45:32.339Z,74
2023-03-06T12:46:32.307Z,74
2023-03-06T12:47:32.331Z,74
2023-03-06T12:48:32.279Z,74
2023-03-06T12:49:33.424Z,73
2023-03-06T12:50:32.320Z,72
2023-03-06T12:51:32.337Z,72
2023-03-06T12:52:32.322Z,69
2023-03-06T12:53:32.331Z,70
2023-03-06T12:54:32.326Z,69
2023-03-06T12:55:32.424Z,69
2023-03-06T12:56:32.361Z,70
2023-03-06T12:57:32.343Z,71
2023-03-06T12:58:32.323Z,70
2023-03-06T12:59:32.329Z,70
2023-03-06T13:00:32.306Z,69
2023-03-06T13:01:32.403Z,70
2023-03-06T13:02:32.370Z,70
2023-03-06T13:03:32.373Z,69
2023-03-06T13:04:32.308Z,69
2023-03-06T13:05:32.344Z,70
2023-03-06T13:06:34.127Z,69
2023-03-06T13:07:32.337Z,69
2023-03-06T13:08:32.316Z,69
2023-03-06T13:09:32.376Z,69
2023-03-06T13:10:32.311Z,69
2023-03-06T13:11:32.309Z,69
2023-03-06T13:12:32.334Z,69
2023-03-06T13:13:32.383Z,69
2023-03-06T13:14:34.099Z,68
2023-03-06T13:15:32.322Z,68
2023-03-06T13:16:32.314Z,69
2023-03-06T13:17:32.354Z,69
2023-03-06T13:18:32.341Z,67
2023-03-06T13:19:32.349Z,68
2023-03-06T13:20:33.981Z,68
2023-03-06T13:21:32.351Z,67
2023-03-06T13:22:32.285Z,68
2023-03-06T13:23:32.336Z,68
2023-03-06T13:24:32.293Z,65
2023-03-06T13:25:32.374Z,66
2023-03-06T13:26:32.367Z,66
2023-03-06T13:27:32.382Z,65
2023-03-06T13:28:32.301Z,66
2023-03-06T13:29:32.326Z,65
2023-03-06T13:30:32.388Z,67
2023-03-06T13:31:32.358Z,66
2023-03-06T13:32:32.355Z,65
2023-03-06T13:33:32.309Z,66
2023-03-06T13:34:32.315Z,66
2023-03-06T13:35:32.521Z,66
2023-03-06T13:36:32.325Z,67
2023-03-06T13:37:32.332Z,68
2023-03-06T13:38:32.344Z,67
2023-03-06T13:39:32.324Z,66
2023-03-06T13:40:32.343Z,66
2023-03-06T13:41:32.339Z,67
2023-03-06T13:42:32.330Z,67
2023-03-06T13:43:32.865Z,68
2023-03-06T13:44:32.290Z,67
2023-03-06T13:45:32.295Z,67
2023-03-06T13:46:32.424Z,67
2023-03-06T13:47:32.323Z,68
2023-03-06T13:48:44.322Z,69
2023-03-06T13:49:32.305Z,68
2023-03-06T13:50:32.312Z,68
2023-03-06T13:51:32.373Z,67
2023-03-06T13:52:32.287Z,66
2023-03-06T13:53:32.325Z,66
2023-03-06T13:54:32.333Z,66
2023-03-06T13:55:32.343Z,65
2023-03-06T13:56:32.288Z,64
2023-03-06T13:57:32.439Z,64
2023-03-06T13:58:32.298Z,65
2023-03-06T13:59:32.344Z,65
2023-03-06T14:00:32.297Z,66
2023-03-06T14:01:32.366Z,65
2023-03-06T14:02:32.354Z,67
2023-03-06T14:03:32.318Z,67
2023-03-06T14:04:32.290Z,66
2023-03-06T14:05:34.069Z,65
2023-03-06T14:06:32.358Z,67
2023-03-06T14:07:32.341Z,66
2023-03-06T14:08:32.285Z,65
2023-03-06T14:09:32.328Z,64
2023-03-06T14:10:32.286Z,63
2023-03-06T14:11:32.321Z,63
2023-03-06T14:12:32.297Z,63
2023-03-06T14:13:38.613Z,64
2023-03-06T14:14:32.341Z,64
2023-03-06T14:15:32.336Z,64